createdAt,value
2022-08-25T00:01:19.002Z,20.05
2022-08-25T00:03:46.167Z,13.45
2022-08-25T00:06:14.914Z,14.70
2022-08-25T00:08:42.649Z,26.27
2022-08-25T00:11:13.129Z,14.05
2022-08-25T00:13:43.095Z,12.52
2022-08-25T00:16:11.097Z,22.52
2022-08-25T00:18:37.983Z,22.85
2022-08-25T00:21:05.833Z,18.10
2022-08-25T00:23:32.791Z,19.60
2022-08-25T00:25:59.548Z,25.13
2022-08-25T00:28:26.222Z,17.77
2022-08-25T00:30:52.986Z,19.15
2022-08-25T00:33:20.645Z,15.73
2022-08-25T00:35:47.380Z,16.92
2022-08-25T00:38:15.902Z,17.73
2022-08-25T00:40:43.423Z,18.70
2022-08-25T00:43:10.864Z,22.53
2022-08-25T00:45:37.674Z,21.10
2022-08-25T00:48:05.008Z,27.45
2022-08-25T00:50:34.483Z,22.45
2022-08-25T00:53:04.305Z,24.00
2022-08-25T00:55:35.579Z,19.73
2022-08-25T00:58:07.652Z,18.13
2022-08-25T01:00:37.927Z,22.63
2022-08-25T01:03:05.483Z,24.47
2022-08-25T01:05:36.308Z,20.47
2022-08-25T01:08:06.744Z,29.42
2022-08-25T01:10:35.225Z,25.90
2022-08-25T01:13:07.538Z,26.35
2022-08-25T01:15:44.102Z,18.13
2022-08-25T01:18:11.161Z,28.33
2022-08-25T01:20:38.828Z,21.35
2022-08-25T01:23:06.878Z,25.35
2022-08-25T01:25:41.698Z,20.88
2022-08-25T01:28:08.857Z,21.63
2022-08-25T01:30:36.945Z,23.80
2022-08-25T01:33:04.690Z,20.47
2022-08-25T01:35:32.201Z,21.05
2022-08-25T01:37:59.660Z,34.30
2022-08-25T01:40:27.451Z,22.57
2022-08-25T01:43:06.090Z,18.43
2022-08-25T01:45:33.774Z,19.03
2022-08-25T01:48:00.852Z,22.30
2022-08-25T01:50:28.066Z,27.13
2022-08-25T01:52:58.837Z,28.42
2022-08-25T01:55:26.754Z,29.02
2022-08-25T01:57:53.478Z,22.98
2022-08-25T02:00:21.695Z,20.40
2022-08-25T02:02:52.305Z,24.60
2022-08-25T02:05:23.582Z,23.27
2022-08-25T02:07:50.566Z,22.10
2022-08-25T02:10:17.349Z,27.75
2022-08-25T02:12:44.816Z,25.70
2022-08-25T02:15:11.712Z,23.73
2022-08-25T02:17:39.267Z,24.33
2022-08-25T02:20:08.853Z,24.23
2022-08-25T02:22:35.594Z,36.40
2022-08-25T02:25:02.717Z,25.30
2022-08-25T02:27:29.449Z,24.83
2022-08-25T02:29:56.847Z,17.90
2022-08-25T02:32:23.970Z,26.57
2022-08-25T02:34:50.637Z,25.97
2022-08-25T02:37:17.332Z,28.10
2022-08-25T02:39:44.169Z,30.77
2022-08-25T02:42:11.289Z,24.77
2022-08-25T02:44:38.022Z,27.07
2022-08-25T02:47:05.559Z,29.53
2022-08-25T02:49:32.423Z,36.47
2022-08-25T02:51:59.947Z,33.97
2022-08-25T02:54:28.607Z,24.03
2022-08-25T02:56:55.338Z,29.37
2022-08-25T02:59:21.977Z,39.10
2022-08-25T03:01:48.714Z,21.73
2022-08-25T03:04:16.153Z,26.70
2022-08-25T03:06:42.861Z,28.00
2022-08-25T03:09:09.666Z,24.33
2022-08-25T03:11:37.589Z,39.23
2022-08-25T03:14:04.626Z,28.30
2022-08-25T03:16:31.937Z,39.60
2022-08-25T03:18:59.788Z,21.27
2022-08-25T03:21:28.785Z,34.27
2022-08-25T03:23:55.732Z,29.03
2022-08-25T03:26:41.176Z,27.33
2022-08-25T03:29:08.298Z,28.43
2022-08-25T03:31:35.435Z,32.17
2022-08-25T03:34:02.438Z,20.07
2022-08-25T03:36:30.115Z,31.50
2022-08-25T03:38:57.373Z,24.77
2022-08-25T03:41:29.163Z,22.40
2022-08-25T03:43:57.095Z,24.03
2022-08-25T03:46:26.481Z,42.20
2022-08-25T03:48:53.487Z,24.13
2022-08-25T03:51:21.800Z,28.77
2022-08-25T03:53:49.424Z,28.77
2022-08-25T03:56:16.347Z,26.67
2022-08-25T03:58:43.240Z,37.87
2022-08-25T04:01:10.174Z,33.07
2022-08-25T04:03:37.021Z,33.70
2022-08-25T04:06:05.648Z,36.67
2022-08-25T04:08:32.394Z,27.63
2022-08-25T04:11:04.742Z,34.50
2022-08-25T04:13:31.764Z,28.87
2022-08-25T04:15:58.451Z,28.10
2022-08-25T04:18:25.240Z,23.03
2022-08-25T04:21:04.548Z,29.30
2022-08-25T04:23:31.553Z,30.80
2022-08-25T04:25:59.216Z,25.70
2022-08-25T04:28:25.954Z,35.80
2022-08-25T04:30:52.685Z,36.87
2022-08-25T04:33:19.548Z,44.83
2022-08-25T04:35:48.250Z,43.23
2022-08-25T04:38:15.120Z,37.90
2022-08-25T04:40:41.880Z,44.10
2022-08-25T04:43:09.537Z,39.87
2022-08-25T04:45:37.809Z,45.63
2022-08-25T04:48:05.061Z,50.43
2022-08-25T04:50:31.828Z,51.17
2022-08-25T04:52:58.737Z,65.97
2022-08-25T04:55:25.452Z,52.13
2022-08-25T04:57:52.193Z,48.00
2022-08-25T05:00:19.931Z,50.30
2022-08-25T05:02:46.916Z,47.67
2022-08-25T05:05:14.040Z,38.27
2022-08-25T05:07:40.915Z,44.47
2022-08-25T05:10:08.268Z,42.73
2022-08-25T05:12:37.974Z,39.83
2022-08-25T05:15:20.183Z,34.53
2022-08-25T05:17:47.572Z,39.77
2022-08-25T05:20:14.361Z,40.67
2022-08-25T05:22:44.655Z,37.17
2022-08-25T05:25:11.639Z,40.23
2022-08-25T05:27:38.356Z,43.33
2022-08-25T05:30:06.751Z,49.77
2022-08-25T05:32:33.486Z,36.67
2022-08-25T05:35:00.930Z,46.93
2022-08-25T05:37:27.768Z,30.90
2022-08-25T05:39:54.709Z,26.73
2022-08-25T05:42:22.349Z,40.77
2022-08-25T05:44:49.192Z,38.13
2022-08-25T05:47:15.923Z,37.67
2022-08-25T05:49:42.954Z,27.42
2022-08-25T05:52:10.508Z,30.70
2022-08-25T05:54:37.795Z,42.95
2022-08-25T05:57:05.218Z,38.50
2022-08-25T05:59:32.507Z,40.50
2022-08-25T06:02:17.533Z,43.07
2022-08-25T06:04:44.553Z,42.17
2022-08-25T06:07:12.201Z,33.77
2022-08-25T06:09:39.106Z,41.40
2022-08-25T06:12:07.189Z,38.33
2022-08-25T06:14:34.803Z,37.33
2022-08-25T06:17:01.652Z,41.00
2022-08-25T06:19:28.607Z,46.80
2022-08-25T06:21:56.474Z,43.20
2022-08-25T06:24:24.299Z,41.70
2022-08-25T06:26:51.216Z,33.67
2022-08-25T06:29:18.740Z,51.27
2022-08-25T06:31:46.529Z,40.20
2022-08-25T06:34:13.718Z,40.90
2022-08-25T06:36:40.804Z,40.88
2022-08-25T06:39:09.196Z,34.95
2022-08-25T06:41:38.527Z,36.35
2022-08-25T06:44:05.942Z,43.33
2022-08-25T06:46:36.139Z,36.83
2022-08-25T06:49:04.605Z,30.40
2022-08-25T06:51:31.409Z,43.90
2022-08-25T06:53:58.158Z,37.83
2022-08-25T06:56:25.105Z,39.80
2022-08-25T06:58:54.112Z,39.47
2022-08-25T07:01:26.237Z,34.38
2022-08-25T07:03:56.691Z,38.45
2022-08-25T07:06:24.311Z,36.08
2022-08-25T07:08:51.152Z,44.05
2022-08-25T07:11:20.249Z,42.42
2022-08-25T07:13:47.651Z,37.70
2022-08-25T07:16:15.746Z,32.90
2022-08-25T07:18:44.060Z,38.35
2022-08-25T07:21:11.910Z,44.47
2022-08-25T07:23:38.720Z,45.42
2022-08-25T07:26:21.540Z,46.47
2022-08-25T07:28:58.152Z,46.42
2022-08-25T07:31:29.515Z,47.10
2022-08-25T07:34:16.383Z,39.05
2022-08-25T07:36:43.508Z,46.35
2022-08-25T07:39:10.486Z,42.75
2022-08-25T07:41:40.102Z,52.65
2022-08-25T07:44:09.405Z,52.00
2022-08-25T07:46:37.045Z,50.05
2022-08-25T07:49:04.655Z,49.67
2022-08-25T07:51:44.162Z,49.70
2022-08-25T07:54:34.114Z,51.10
2022-08-25T07:57:01.738Z,50.78
2022-08-25T07:59:28.507Z,50.00
2022-08-25T08:01:55.939Z,49.28
2022-08-25T08:04:22.690Z,50.05
2022-08-25T08:06:49.382Z,57.42
2022-08-25T08:09:16.139Z,46.13
2022-08-25T08:11:53.809Z,47.83
2022-08-25T08:14:21.086Z,53.25
2022-08-25T08:16:49.364Z,42.25
2022-08-25T08:19:17.142Z,45.17
2022-08-25T08:21:45.969Z,47.33
2022-08-25T08:24:25.021Z,43.90
2022-08-25T08:27:02.072Z,40.60
2022-08-25T08:29:28.849Z,36.45
2022-08-25T08:31:55.620Z,39.22
2022-08-25T08:34:25.219Z,31.65
2022-08-25T08:36:54.260Z,38.53
2022-08-25T08:39:21.347Z,28.45
2022-08-25T08:42:17.301Z,37.13
2022-08-25T08:45:02.624Z,29.88
2022-08-25T08:47:44.093Z,37.15
2022-08-25T08:50:28.118Z,29.17
2022-08-25T08:53:05.756Z,28.10
2022-08-25T08:55:39.172Z,32.85
2022-08-25T08:58:10.264Z,33.90
2022-08-25T09:00:52.172Z,21.98
2022-08-25T09:03:31.255Z,47.50
2022-08-25T09:06:03.696Z,29.92
2022-08-25T09:08:34.554Z,34.95
2022-08-25T09:11:10.168Z,22.10
2022-08-25T09:13:50.945Z,24.30
2022-08-25T09:16:42.698Z,23.20
2022-08-25T09:19:26.459Z,19.85
2022-08-25T09:21:59.456Z,25.15
2022-08-25T09:24:42.692Z,22.67
2022-08-25T09:27:18.063Z,27.63
2022-08-25T09:29:57.220Z,21.83
2022-08-25T09:32:31.547Z,17.80
2022-08-25T09:35:01.420Z,28.33
2022-08-25T09:37:29.856Z,16.35
2022-08-25T09:39:57.379Z,22.42
2022-08-25T09:42:48.190Z,29.50
2022-08-25T09:45:29.955Z,17.35
2022-08-25T09:47:56.852Z,24.60
2022-08-25T09:50:23.923Z,16.27
2022-08-25T09:53:09.977Z,19.08
2022-08-25T09:55:40.597Z,22.40
2022-08-25T09:58:18.429Z,20.45
2022-08-25T10:01:01.156Z,18.45
2022-08-25T10:03:28.191Z,20.65
2022-08-25T10:06:04.688Z,30.42
2022-08-25T10:08:35.849Z,23.55
2022-08-25T10:11:08.808Z,23.08
2022-08-25T10:13:42.090Z,22.05
2022-08-25T10:16:24.782Z,28.95
2022-08-25T10:19:08.091Z,23.75
2022-08-25T10:21:36.270Z,21.95
2022-08-25T10:24:05.274Z,25.83
2022-08-25T10:26:44.064Z,28.98
2022-08-25T10:29:24.681Z,24.77
2022-08-25T10:31:57.190Z,22.58
2022-08-25T10:34:38.955Z,22.95
2022-08-25T10:37:18.661Z,19.48
2022-08-25T10:39:55.473Z,26.77
2022-08-25T10:42:33.669Z,21.63
2022-08-25T10:45:34.120Z,19.55
2022-08-25T10:48:27.925Z,26.42
2022-08-25T10:51:00.670Z,20.58
2022-08-25T10:53:34.433Z,17.80
2022-08-25T10:56:12.159Z,35.10
2022-08-25T10:58:59.452Z,25.33
2022-08-25T11:01:47.115Z,23.00
2022-08-25T11:04:25.494Z,22.70
2022-08-25T11:06:58.039Z,28.83
2022-08-25T11:09:29.532Z,25.88
2022-08-25T11:12:00.641Z,23.42
2022-08-25T11:14:34.689Z,28.73
2022-08-25T11:17:09.975Z,20.50
2022-08-25T11:19:39.760Z,23.77
2022-08-25T11:22:15.569Z,28.90
2022-08-25T11:24:58.031Z,19.65
2022-08-25T11:27:32.189Z,19.55
2022-08-25T11:30:06.290Z,26.75
2022-08-25T11:32:34.991Z,31.42
2022-08-25T11:35:05.394Z,27.90
2022-08-25T11:37:35.788Z,18.63
2022-08-25T11:40:23.498Z,30.80
2022-08-25T11:43:01.554Z,45.58
2022-08-25T11:45:54.792Z,26.73
2022-08-25T11:48:35.132Z,33.95
2022-08-25T11:51:05.151Z,30.88
2022-08-25T11:53:34.100Z,32.60
2022-08-25T11:56:04.951Z,30.63
2022-08-25T11:58:46.043Z,33.08
2022-08-25T12:02:02.753Z,22.98
2022-08-25T12:04:45.197Z,29.63
2022-08-25T12:07:25.055Z,29.20
2022-08-25T12:10:16.408Z,32.63
2022-08-25T12:13:27.771Z,17.08
2022-08-25T12:15:58.971Z,28.05
2022-08-25T12:18:45.563Z,32.08
2022-08-25T12:21:16.618Z,28.30
2022-08-25T12:23:46.414Z,28.17
2022-08-25T12:26:29.833Z,34.25
2022-08-25T12:29:08.500Z,22.20
2022-08-25T12:32:12.630Z,46.40
2022-08-25T12:35:19.733Z,32.75
2022-08-25T12:37:59.652Z,26.35
2022-08-25T12:40:31.064Z,27.80
2022-08-25T12:43:04.653Z,23.52
2022-08-25T12:45:37.880Z,25.70
2022-08-25T12:48:42.040Z,18.25
2022-08-25T12:51:15.599Z,18.52
2022-08-25T12:53:45.861Z,23.88
2022-08-25T12:56:20.901Z,42.60
2022-08-25T12:59:00.303Z,24.13
2022-08-25T13:01:38.637Z,33.78
2022-08-25T13:04:43.665Z,24.38
2022-08-25T13:07:21.858Z,28.60
2022-08-25T13:10:22.626Z,32.05
2022-08-25T13:12:55.114Z,19.77
2022-08-25T13:15:37.285Z,15.93
2022-08-25T13:18:15.398Z,22.23
2022-08-25T13:20:45.021Z,17.80
2022-08-25T13:23:17.510Z,23.13
2022-08-25T13:25:51.232Z,25.05
2022-08-25T13:28:26.378Z,29.05
2022-08-25T13:30:58.573Z,19.25
2022-08-25T13:33:27.654Z,20.67
2022-08-25T13:36:17.587Z,21.13
2022-08-25T13:38:46.836Z,28.40
2022-08-25T13:41:23.275Z,26.35
2022-08-25T13:43:56.686Z,27.58
2022-08-25T13:46:27.962Z,18.55
2022-08-25T13:49:03.983Z,27.88
2022-08-25T13:51:31.911Z,29.33
2022-08-25T13:54:02.120Z,19.60
2022-08-25T13:56:38.457Z,38.42
2022-08-25T13:59:22.159Z,30.10
2022-08-25T14:01:53.433Z,22.50
2022-08-25T14:04:24.232Z,28.63
2022-08-25T14:07:15.482Z,35.28
2022-08-25T14:09:49.395Z,26.55
2022-08-25T14:12:35.505Z,24.45
2022-08-25T14:15:07.253Z,28.15
2022-08-25T14:17:39.592Z,34.30
2022-08-25T14:20:18.514Z,23.42
2022-08-25T14:22:46.725Z,21.02
2022-08-25T14:25:13.586Z,20.95
2022-08-25T14:28:05.683Z,21.95
2022-08-25T14:30:30.840Z,26.17
2022-08-25T14:32:58.402Z,30.92
2022-08-25T14:35:26.946Z,20.35
2022-08-25T14:37:55.048Z,19.17
2022-08-25T14:40:22.075Z,43.92
2022-08-25T14:42:49.529Z,17.67
2022-08-25T14:45:17.628Z,33.97
2022-08-25T14:47:45.950Z,32.13
2022-08-25T14:50:20.094Z,39.55
2022-08-25T14:52:48.040Z,23.38
2022-08-25T14:55:31.247Z,46.35
2022-08-25T14:57:58.270Z,15.13
2022-08-25T15:00:25.828Z,26.20
2022-08-25T15:02:53.015Z,27.63
2022-08-25T15:05:25.096Z,30.40
2022-08-25T15:08:12.427Z,41.28
2022-08-25T15:10:40.423Z,27.77
2022-08-25T15:13:08.230Z,25.67
2022-08-25T15:15:40.004Z,35.22
2022-08-25T15:18:20.438Z,25.58
2022-08-25T15:20:47.497Z,25.75
2022-08-25T15:23:17.870Z,29.75
2022-08-25T15:25:47.376Z,31.63
2022-08-25T15:28:17.424Z,19.65
2022-08-25T15:30:45.930Z,17.88
2022-08-25T15:33:13.109Z,27.05
2022-08-25T15:35:42.101Z,23.00
2022-08-25T15:38:18.463Z,31.88
2022-08-25T15:40:48.298Z,29.15
2022-08-25T15:43:16.565Z,34.28
2022-08-25T15:45:43.367Z,31.08
2022-08-25T15:48:13.581Z,28.80
2022-08-25T15:50:40.480Z,35.05
2022-08-25T15:53:10.522Z,27.85
2022-08-25T15:55:39.617Z,24.23
2022-08-25T15:58:08.818Z,39.38
2022-08-25T16:00:36.096Z,28.63
2022-08-25T16:03:05.009Z,37.95
2022-08-25T16:05:35.716Z,39.47
2022-08-25T16:08:04.609Z,47.03
2022-08-25T16:10:34.150Z,44.40
2022-08-25T16:15:54.068Z,36.17
2022-08-25T16:18:43.486Z,37.55
2022-08-25T16:21:12.350Z,40.45
2022-08-25T16:23:40.076Z,50.53
2022-08-25T16:26:09.085Z,49.13
2022-08-25T16:28:37.492Z,57.88
2022-08-25T16:31:05.608Z,43.45
2022-08-25T16:33:36.735Z,45.92
2022-08-25T16:36:06.315Z,34.85
2022-08-25T16:38:34.327Z,44.53
2022-08-25T16:41:08.675Z,55.47
2022-08-25T16:43:35.866Z,37.13
2022-08-25T16:46:05.891Z,37.08
2022-08-25T16:48:34.827Z,38.78
2022-08-25T16:51:07.721Z,42.20
2022-08-25T16:53:53.383Z,39.95
2022-08-25T16:56:24.104Z,49.90
2022-08-25T16:58:52.228Z,40.95
2022-08-25T17:01:22.302Z,53.35
2022-08-25T17:03:51.620Z,33.22
2022-08-25T17:06:18.424Z,55.58
2022-08-25T17:08:46.310Z,48.25
2022-08-25T17:11:15.089Z,50.60
2022-08-25T17:13:45.625Z,53.83
2022-08-25T17:16:14.610Z,56.88
2022-08-25T17:18:42.889Z,47.00
2022-08-25T17:21:23.928Z,37.83
2022-08-25T17:23:52.306Z,60.95
2022-08-25T17:26:19.382Z,37.05
2022-08-25T17:28:46.294Z,44.75
2022-08-25T17:31:14.392Z,51.97
2022-08-25T17:33:42.027Z,43.55
2022-08-25T17:36:09.152Z,46.15
2022-08-25T17:38:37.024Z,32.38
2022-08-25T17:41:07.099Z,36.85
2022-08-25T17:43:36.482Z,58.95
2022-08-25T17:46:05.621Z,40.85
2022-08-25T17:48:33.438Z,66.97
2022-08-25T17:51:01.677Z,37.90
2022-08-25T17:53:29.283Z,44.85
2022-08-25T17:56:01.257Z,47.35
2022-08-25T17:58:29.118Z,49.20
2022-08-25T18:00:56.064Z,37.28
2022-08-25T18:03:23.170Z,36.45
2022-08-25T18:05:51.386Z,48.95
2022-08-25T18:08:19.346Z,55.13
2022-08-25T18:10:48.208Z,43.95
2022-08-25T18:13:15.720Z,45.25
2022-08-25T18:15:43.838Z,52.97
2022-08-25T18:18:12.550Z,37.78
2022-08-25T18:20:40.357Z,58.95
2022-08-25T18:23:09.721Z,52.88
2022-08-25T18:25:49.167Z,51.30
2022-08-25T18:28:20.462Z,38.33
2022-08-25T18:30:47.508Z,48.38
2022-08-25T18:33:15.250Z,47.50
2022-08-25T18:35:42.545Z,46.60
2022-08-25T18:38:27.422Z,63.60
2022-08-25T18:40:58.738Z,51.10
2022-08-25T18:43:26.314Z,55.17
2022-08-25T18:45:54.158Z,46.53
2022-08-25T18:48:23.104Z,35.20
2022-08-25T18:50:54.299Z,61.30
2022-08-25T18:53:30.606Z,54.35
2022-08-25T18:56:10.441Z,44.78
2022-08-25T18:58:37.195Z,43.47
2022-08-25T19:01:04.452Z,44.03
2022-08-25T19:03:31.938Z,40.20
2022-08-25T19:05:59.417Z,37.60
2022-08-25T19:08:26.505Z,36.13
2022-08-25T19:10:53.668Z,51.10
2022-08-25T19:13:22.694Z,44.03
2022-08-25T19:15:51.699Z,39.00
2022-08-25T19:18:26.200Z,37.65
2022-08-25T19:20:57.354Z,49.28
2022-08-25T19:23:25.880Z,33.40
2022-08-25T19:25:52.678Z,47.67
2022-08-25T19:28:20.935Z,41.33
2022-08-25T19:30:50.551Z,45.67
2022-08-25T19:33:42.037Z,45.65
2022-08-25T19:36:06.093Z,39.75
2022-08-25T19:38:35.965Z,37.45
2022-08-25T19:41:10.782Z,39.63
2022-08-25T19:43:56.221Z,39.22
2022-08-25T19:46:25.680Z,41.03
2022-08-25T19:49:06.932Z,35.90
2022-08-25T19:51:35.590Z,44.35
2022-08-25T19:54:03.017Z,31.05
2022-08-25T19:56:31.836Z,35.83
2022-08-25T19:59:00.817Z,29.75
2022-08-25T20:01:27.989Z,38.05
2022-08-25T20:03:54.959Z,54.70
2022-08-25T20:06:24.194Z,48.92
2022-08-25T20:08:58.969Z,48.08
2022-08-25T20:11:28.339Z,48.28
2022-08-25T20:13:58.191Z,36.80
2022-08-25T20:16:27.975Z,46.13
2022-08-25T20:18:55.068Z,51.25
2022-08-25T20:21:21.954Z,42.35
2022-08-25T20:24:07.410Z,36.92
2022-08-25T20:26:38.640Z,29.05
2022-08-25T20:29:10.282Z,55.25
2022-08-25T20:31:39.903Z,43.08
2022-08-25T20:34:06.796Z,33.95
2022-08-25T20:36:33.697Z,47.83
2022-08-25T20:39:00.486Z,32.28
2022-08-25T20:41:27.702Z,40.72
2022-08-25T20:43:54.442Z,42.70
2022-08-25T20:46:22.338Z,28.05
2022-08-25T20:48:51.586Z,43.25
2022-08-25T20:51:20.455Z,30.05
2022-08-25T20:53:50.594Z,33.40
2022-08-25T20:56:18.644Z,31.38
2022-08-25T20:58:45.564Z,28.80
2022-08-25T21:01:19.811Z,50.58
2022-08-25T21:03:51.069Z,32.55
2022-08-25T21:06:19.383Z,37.78
2022-08-25T21:08:48.113Z,33.20
2022-08-25T21:11:17.318Z,35.17
2022-08-25T21:13:45.082Z,35.80
2022-08-25T21:16:12.321Z,33.25
2022-08-25T21:18:44.213Z,34.20
2022-08-25T21:21:16.587Z,53.40
2022-08-25T21:23:45.728Z,35.30
2022-08-25T21:26:13.464Z,35.88
2022-08-25T21:28:40.314Z,40.85
2022-08-25T21:31:15.974Z,45.05
2022-08-25T21:33:44.881Z,59.50
2022-08-25T21:36:14.658Z,49.97
2022-08-25T21:38:42.450Z,47.75
2022-08-25T21:41:10.875Z,29.52
2022-08-25T21:43:38.923Z,35.97
2022-08-25T21:46:11.812Z,39.38
2022-08-25T21:48:40.157Z,31.85
2022-08-25T21:51:09.047Z,30.63
2022-08-25T21:53:36.446Z,44.72
2022-08-25T21:56:06.200Z,41.40
2022-08-25T21:58:34.215Z,44.45
2022-08-25T22:01:05.699Z,43.47
2022-08-25T22:03:47.240Z,32.88
2022-08-25T22:06:16.268Z,36.45
2022-08-25T22:08:43.518Z,30.02
2022-08-25T22:11:14.573Z,49.22
2022-08-25T22:13:43.686Z,37.63
2022-08-25T22:16:12.348Z,44.55
2022-08-25T22:18:39.996Z,24.77
2022-08-25T22:21:09.420Z,26.40
2022-08-25T22:23:40.000Z,42.80
2022-08-25T22:26:14.583Z,33.78
2022-08-25T22:28:44.116Z,42.58
2022-08-25T22:31:13.517Z,31.65
2022-08-25T22:33:43.425Z,32.13
2022-08-25T22:36:15.499Z,31.90
2022-08-25T22:38:43.858Z,45.33
2022-08-25T22:41:11.348Z,35.60
2022-08-25T22:43:47.918Z,34.45
2022-08-25T22:46:14.828Z,35.17
2022-08-25T22:48:44.134Z,36.85
2022-08-25T22:51:15.771Z,38.05
2022-08-25T22:53:44.620Z,38.97
2022-08-25T22:56:14.473Z,36.75
2022-08-25T22:58:51.696Z,39.00
2022-08-25T23:01:20.362Z,46.97
2022-08-25T23:03:47.575Z,53.60
2022-08-25T23:06:20.739Z,36.13
2022-08-25T23:08:52.494Z,38.85
2022-08-25T23:11:22.538Z,29.52
2022-08-25T23:13:50.027Z,34.80
2022-08-25T23:16:17.861Z,24.83
2022-08-25T23:18:46.182Z,32.75
2022-08-25T23:21:37.996Z,30.63
2022-08-25T23:24:08.149Z,52.28
2022-08-25T23:26:36.088Z,31.30
2022-08-25T23:29:03.352Z,30.48
2022-08-25T23:31:44.985Z,31.88
2022-08-25T23:34:12.010Z,37.42
2022-08-25T23:36:40.112Z,43.10
2022-08-25T23:39:07.791Z,29.98
2022-08-25T23:41:36.093Z,33.90
2022-08-25T23:44:04.633Z,32.28
2022-08-25T23:46:31.784Z,36.25
2022-08-25T23:48:58.730Z,33.90
2022-08-25T23:51:29.298Z,30.67
2022-08-25T23:53:59.261Z,32.50
2022-08-25T23:56:26.332Z,28.45
2022-08-25T23:58:56.405Z,38.85
